Terminal Aerodrome Forecast
Issued by NWS

Current Version | Previous Version | Text Only | Print | Product List | Glossary Off
Versions: 1 2 3 4 5 6 7 8 9 10 11 12 13 14 15 16 17 18 19 20

000
FTUS41 KPBZ 202000 AAA
TAFHLG
TAF AMD
KHLG 202032Z 2021/2118 VRB03KT P6SM SCT020 BKN050
     FM210800 14003KT 3SM BR SCT040
     FM211000 VRB02KT 2SM BR BKN002
      TEMPO 2110/2112 1/2SM FG VV001
     FM211300 18005KT P6SM SCT040=

USA.gov is the U.S. government's official web portal to all federal, state and local government web resources and services.